Time;durP1;ratioP1;P1;durP2;ratioP2;P2;SDS_P1;SDS_P2;PMS_P1;PMS_P2;Temp;Humidity;BMP_temperature;BMP_pressure;BME280_temperature;BME280_humidity;BME280_pressure;Samples;Min_cycle;Max_cycle;Signal;HPM_P1;HPM_P2
2023/10/28 00:01:41;;;;;;;0.10;0.10;;;;;;;10.10;100.00;97388.56;5155720;27;20388;-55
2023/10/28 00:04:28;;;;;;;0.00;0.00;;;;;;;10.14;100.00;97393.44;5157339;27;20192;-56
2023/10/28 00:07:16;;;;;;;0.10;0.10;;;;;;;10.23;100.00;97384.72;5157250;27;20253;-56
2023/10/28 00:10:03;;;;;;;0.10;0.10;;;;;;;10.25;100.00;97395.16;5157174;27;20204;-55
2023/10/28 00:12:50;;;;;;;0.10;0.10;;;;;;;10.24;100.00;97399.59;5156978;27;20200;-55
2023/10/28 00:15:36;;;;;;;0.10;0.10;;;;;;;10.20;100.00;97397.31;5155677;27;20759;-55
2023/10/28 00:18:24;;;;;;;0.10;0.10;;;;;;;10.24;100.00;97394.31;5157107;27;20234;-55
2023/10/28 00:21:11;;;;;;;0.10;0.10;;;;;;;10.29;100.00;97393.88;5156836;27;20212;-55
2023/10/28 00:23:59;;;;;;;0.00;0.00;;;;;;;10.26;100.00;97400.28;5156596;27;20225;-58
2023/10/28 00:26:47;;;;;;;0.10;0.10;;;;;;;10.23;100.00;97403.22;5156837;27;20207;-58
2023/10/28 00:29:34;;;;;;;0.10;0.10;;;;;;;10.24;100.00;97401.41;5156811;27;20662;-58
2023/10/28 00:32:22;;;;;;;0.10;0.10;;;;;;;10.24;100.00;97398.78;5155444;27;20254;-58
2023/10/28 00:35:11;;;;;;;0.00;0.00;;;;;;;10.28;100.00;97408.91;5141034;27;20189;-58
2023/10/28 00:37:58;;;;;;;0.10;0.10;;;;;;;10.35;100.00;97417.16;5156747;27;20188;-58
2023/10/28 00:40:47;;;;;;;0.10;0.10;;;;;;;10.46;100.00;97410.88;5156555;27;20200;-58
2023/10/28 00:43:34;;;;;;;0.00;0.00;;;;;;;10.36;100.00;97412.69;5140823;27;20189;-58
2023/10/28 00:46:21;;;;;;;0.10;0.10;;;;;;;10.45;100.00;97419.78;5155325;27;20234;-58
2023/10/28 00:49:08;;;;;;;0.07;0.07;;;;;;;10.34;100.00;97417.28;5156617;27;20327;-58
2023/10/28 00:51:55;;;;;;;0.10;0.10;;;;;;;10.32;100.00;97425.34;5156304;27;20180;-58
2023/10/28 00:54:42;;;;;;;0.10;0.10;;;;;;;10.35;100.00;97416.31;5156259;27;20192;-59
2023/10/28 00:57:32;;;;;;;0.10;0.10;;;;;;;10.36;100.00;97418.81;5156050;27;20216;-59
2023/10/28 01:00:20;;;;;;;0.00;0.00;;;;;;;10.26;100.00;97420.63;5139147;27;20744;-59
2023/10/28 01:03:09;;;;;;;0.10;0.10;;;;;;;10.32;100.00;97420.88;5155840;27;20217;-58
2023/10/28 01:05:57;;;;;;;0.10;0.10;;;;;;;10.31;100.00;97421.84;5140475;27;20192;-58
2023/10/28 01:08:43;;;;;;;0.00;0.00;;;;;;;10.41;100.00;97424.50;5140292;27;20201;-59
2023/10/28 01:11:30;;;;;;;0.10;0.10;;;;;;;10.63;100.00;97420.75;5155900;27;20208;-59
2023/10/28 01:14:19;;;;;;;0.10;0.10;;;;;;;10.46;100.00;97422.28;5156003;27;20200;-59
2023/10/28 01:17:05;;;;;;;0.00;0.00;;;;;;;10.42;100.00;97417.41;5154765;27;20192;-58
2023/10/28 01:19:53;;;;;;;0.10;0.10;;;;;;;10.52;100.00;97427.03;5139784;27;20196;-59
2023/10/28 01:22:41;;;;;;;0.10;0.10;;;;;;;10.60;100.00;97435.09;5133547;27;20594;-58
2023/10/28 01:25:28;;;;;;;0.10;0.10;;;;;;;10.52;100.00;97421.75;5134066;27;20228;-58
2023/10/28 01:28:18;;;;;;;0.10;0.10;;;;;;;10.70;100.00;97427.13;5134881;27;20193;-58
2023/10/28 01:31:05;;;;;;;0.00;0.00;;;;;;;10.58;100.00;97430.91;5133694;27;20748;-58
2023/10/28 01:33:52;;;;;;;0.10;0.10;;;;;;;10.68;100.00;97434.38;5134825;27;20243;-59
2023/10/28 01:36:41;;;;;;;0.00;0.00;;;;;;;10.62;100.00;97428.84;5134645;27;20728;-59
2023/10/28 01:39:29;;;;;;;0.00;0.00;;;;;;;10.57;100.00;97431.88;5133688;27;20285;-58
2023/10/28 01:42:16;;;;;;;0.00;0.00;;;;;;;10.61;100.00;97435.91;5133466;27;20347;-58
2023/10/28 01:45:03;;;;;;;0.10;0.10;;;;;;;10.54;100.00;97440.13;5133646;27;20208;-58
2023/10/28 01:47:50;;;;;;;0.10;0.10;;;;;;;10.53;100.00;97436.63;5134546;27;20197;-58
2023/10/28 01:50:37;;;;;;;0.10;0.10;;;;;;;10.51;100.00;97438.56;5134537;27;20209;-59
2023/10/28 01:53:25;;;;;;;0.10;0.10;;;;;;;10.52;100.00;97436.78;5134307;27;20683;-59
2023/10/28 01:56:13;;;;;;;0.07;0.07;;;;;;;10.52;100.00;97442.06;5134594;27;20189;-58
2023/10/28 01:59:01;;;;;;;0.10;0.10;;;;;;;10.53;100.00;97435.81;5133262;27;20679;-59
2023/10/28 02:01:48;;;;;;;0.00;0.00;;;;;;;10.51;100.00;97440.38;5131837;27;20214;-59
2023/10/28 02:04:35;;;;;;;0.10;0.10;;;;;;;10.50;100.00;97441.34;5134319;27;20197;-58
2023/10/28 02:07:21;;;;;;;0.00;0.00;;;;;;;10.55;100.00;97445.28;5134265;27;20204;-58
2023/10/28 02:10:10;;;;;;;0.00;0.00;;;;;;;10.67;100.00;97453.06;5134047;27;20193;-59
2023/10/28 02:12:58;;;;;;;0.00;0.00;;;;;;;10.53;100.00;97452.53;5134078;27;20197;-59
2023/10/28 02:15:48;;;;;;;0.00;0.00;;;;;;;10.51;100.00;97448.31;5132904;27;20269;-58
2023/10/28 02:18:35;;;;;;;0.10;0.10;;;;;;;10.68;100.00;97454.72;5132909;27;20221;-59
2023/10/28 02:21:22;;;;;;;0.00;0.00;;;;;;;10.78;100.00;97452.91;5134131;27;20201;-59
2023/10/28 02:24:09;;;;;;;0.00;0.00;;;;;;;10.71;100.00;97455.31;5153423;27;20216;-59
2023/10/28 02:26:56;;;;;;;0.00;0.00;;;;;;;10.56;100.00;97457.53;5154499;27;20415;-59
2023/10/28 02:29:44;;;;;;;0.10;0.10;;;;;;;10.67;100.00;97453.06;5139137;27;20257;-59
2023/10/28 02:32:31;;;;;;;0.10;0.10;;;;;;;10.58;100.00;97463.50;5153272;27;20326;-58
2023/10/28 02:35:18;;;;;;;0.10;0.10;;;;;;;10.79;100.00;97451.94;5154608;27;20238;-59
2023/10/28 02:38:05;;;;;;;0.00;0.00;;;;;;;10.76;100.00;97453.06;5138771;27;20227;-58
2023/10/28 02:40:52;;;;;;;0.00;0.00;;;;;;;10.54;100.00;97453.34;5154471;27;20189;-59
2023/10/28 02:43:40;;;;;;;0.00;0.00;;;;;;;10.62;100.00;97457.97;5138375;27;20236;-58
2023/10/28 02:46:28;;;;;;;0.00;0.00;;;;;;;10.69;100.00;97461.69;5137456;27;20196;-58
2023/10/28 02:49:15;;;;;;;0.10;0.10;;;;;;;10.60;100.00;97458.06;5154290;27;20193;-58
2023/10/28 02:52:03;;;;;;;0.10;0.10;;;;;;;10.75;100.00;97461.97;5154313;27;20253;-59
2023/10/28 02:54:49;;;;;;;0.00;0.00;;;;;;;10.66;100.00;97472.56;5138756;27;20192;-59
2023/10/28 02:57:36;;;;;;;0.10;0.10;;;;;;;10.72;100.00;97464.06;5157848;27;20197;-58
2023/10/28 03:00:24;;;;;;;0.10;0.10;;;;;;;10.60;100.00;97474.78;5141556;27;20204;-59
2023/10/28 03:03:12;;;;;;;0.00;0.00;;;;;;;10.66;100.00;97475.22;5158299;27;20208;-58
2023/10/28 03:05:59;;;;;;;0.10;0.10;;;;;;;10.51;100.00;97474.78;5158425;27;20211;-59
2023/10/28 03:08:46;;;;;;;0.10;0.10;;;;;;;10.67;100.00;97487.47;5158570;27;20192;-59
2023/10/28 03:11:33;;;;;;;0.00;0.00;;;;;;;10.57;100.00;97479.53;5158507;27;20189;-59
2023/10/28 03:14:19;;;;;;;0.10;0.10;;;;;;;10.72;100.00;97491.41;5142669;27;20192;-58
2023/10/28 03:17:06;;;;;;;0.10;0.10;;;;;;;10.79;100.00;97489.81;5156939;27;20237;-58
2023/10/28 03:19:54;;;;;;;0.00;0.00;;;;;;;10.76;100.00;97484.81;5142582;27;20262;-58
2023/10/28 03:22:41;;;;;;;0.10;0.10;;;;;;;10.81;100.00;97481.78;5157919;27;20246;-58
2023/10/28 03:25:28;;;;;;;0.10;0.10;;;;;;;10.73;100.00;97487.75;5158085;27;20239;-58
2023/10/28 03:28:15;;;;;;;0.10;0.10;;;;;;;10.82;100.00;97494.03;5158177;27;20262;-58
2023/10/28 03:31:09;;;;;;;0.00;0.00;;;;;;;10.89;100.00;97492.47;5156650;27;20227;-59
2023/10/28 03:33:56;;;;;;;0.10;0.10;;;;;;;10.88;100.00;97491.63;5157999;27;20204;-58
2023/10/28 03:36:46;;;;;;;0.10;0.10;;;;;;;10.83;100.00;97503.66;5158024;27;20258;-58
2023/10/28 03:39:33;;;;;;;0.00;0.00;;;;;;;10.86;100.00;97495.41;5157888;27;20197;-58
2023/10/28 03:42:20;;;;;;;0.10;0.10;;;;;;;10.83;100.00;97493.88;5157689;27;20254;-58
2023/10/28 03:45:08;;;;;;;0.10;0.10;;;;;;;10.76;100.00;97497.22;5157423;27;20189;-58
2023/10/28 03:47:55;;;;;;;0.00;0.00;;;;;;;10.66;100.00;97493.75;5157721;27;20262;-58
2023/10/28 03:50:42;;;;;;;0.00;0.00;;;;;;;10.68;100.00;97499.75;5157621;27;20192;-58
2023/10/28 03:53:30;;;;;;;0.00;0.00;;;;;;;10.69;100.00;97493.47;5157545;27;20262;-58
2023/10/28 03:56:17;;;;;;;0.10;0.10;;;;;;;10.73;100.00;97495.72;5157446;27;20679;-58
2023/10/28 03:59:04;;;;;;;0.10;0.10;;;;;;;10.72;100.00;97496.69;5157568;27;20199;-58
2023/10/28 04:01:51;;;;;;;0.10;0.10;;;;;;;10.73;100.00;97494.88;5156291;27;20193;-58
2023/10/28 04:04:38;;;;;;;0.10;0.10;;;;;;;10.74;100.00;97492.09;5157018;27;20216;-58
2023/10/28 04:07:25;;;;;;;0.00;0.00;;;;;;;10.81;100.00;97487.06;5156851;27;20193;-58
2023/10/28 04:10:13;;;;;;;0.10;0.10;;;;;;;10.83;100.00;97483.28;5157256;27;20204;-58
2023/10/28 04:13:00;;;;;;;0.00;0.00;;;;;;;10.83;100.00;97483.28;5157034;27;20180;-58
2023/10/28 04:15:47;;;;;;;0.07;0.07;;;;;;;10.89;100.00;97487.16;5155878;27;20212;-58
2023/10/28 04:18:34;;;;;;;0.00;0.00;;;;;;;10.83;100.00;97479.81;5157000;27;20197;-58
2023/10/28 04:21:21;;;;;;;0.00;0.00;;;;;;;10.78;100.00;97480.22;5156907;27;20188;-58
2023/10/28 04:24:09;;;;;;;0.10;0.10;;;;;;;10.86;100.00;97485.66;5156511;27;20216;-58
2023/10/28 04:26:58;;;;;;;0.10;0.10;;;;;;;10.83;100.00;97480.66;5156915;27;20193;-58
2023/10/28 04:29:45;;;;;;;0.10;0.10;;;;;;;10.89;100.00;97472.13;5156712;27;20197;-58
2023/10/28 04:32:32;;;;;;;0.00;0.00;;;;;;;10.87;100.00;97465.28;5156014;27;20194;-58
2023/10/28 04:35:19;;;;;;;0.10;0.10;;;;;;;10.90;100.00;97459.72;5156812;27;20196;-58
2023/10/28 04:38:13;;;;;;;0.10;0.10;;;;;;;10.99;100.00;97464.16;5140882;27;20639;-58
2023/10/28 04:41:00;;;;;;;0.10;0.10;;;;;;;10.83;100.00;97464.75;5156692;27;20196;-58
2023/10/28 04:43:48;;;;;;;0.10;0.10;;;;;;;10.86;100.00;97459.16;5156607;27;20286;-58
2023/10/28 04:46:35;;;;;;;0.10;0.10;;;;;;;10.66;100.00;97459.34;5155068;27;20197;-58
2023/10/28 04:49:22;;;;;;;0.00;0.00;;;;;;;10.67;100.00;97466.28;5156530;27;20261;-58
2023/10/28 04:52:09;;;;;;;0.10;0.10;;;;;;;10.62;100.00;97461.44;5156507;27;20196;-58
2023/10/28 04:54:56;;;;;;;0.00;0.00;;;;;;;10.55;100.00;97463.81;5156276;27;20193;-58
2023/10/28 04:57:42;;;;;;;0.10;0.10;;;;;;;10.51;100.00;97461.56;5156176;27;20725;-58
2023/10/28 05:00:30;;;;;;;0.10;0.10;;;;;;;10.58;100.00;97460.03;5155010;27;20196;-58
2023/10/28 05:03:17;;;;;;;0.00;0.00;;;;;;;10.56;100.00;97454.88;5155982;27;20289;-58
2023/10/28 05:06:09;;;;;;;0.00;0.00;;;;;;;10.49;100.00;97437.88;5156167;27;20197;-58
2023/10/28 05:08:56;;;;;;;0.10;0.10;;;;;;;10.39;100.00;97436.22;5156182;27;20304;-58
2023/10/28 05:11:43;;;;;;;0.00;0.00;;;;;;;10.36;100.00;97431.22;5155989;27;20184;-58
2023/10/28 05:14:30;;;;;;;0.10;0.10;;;;;;;10.44;100.00;97444.59;5156127;27;20188;-58
2023/10/28 05:17:18;;;;;;;0.10;0.10;;;;;;;10.35;100.00;97432.19;5154757;27;20275;-58
2023/10/28 05:20:07;;;;;;;0.10;0.10;;;;;;;9.97;100.00;97442.56;5155898;27;20744;-58
2023/10/28 05:22:54;;;;;;;0.10;0.10;;;;;;;9.99;100.00;97442.41;5155537;27;20244;-58
2023/10/28 05:25:41;;;;;;;0.03;0.03;;;;;;;9.94;100.00;97456.06;5155710;27;20425;-58
2023/10/28 05:28:28;;;;;;;0.10;0.10;;;;;;;9.97;100.00;97449.66;5155801;27;20258;-58
2023/10/28 05:31:15;;;;;;;0.10;0.10;;;;;;;10.09;100.00;97453.00;5154378;27;20314;-58
2023/10/28 05:34:03;;;;;;;0.10;0.10;;;;;;;9.93;100.00;97456.19;5155533;27;20200;-58
2023/10/28 05:36:51;;;;;;;0.10;0.10;;;;;;;10.01;100.00;97456.34;5155388;27;20196;-58
2023/10/28 05:39:40;;;;;;;0.10;0.10;;;;;;;9.93;100.00;97462.28;5139661;27;20194;-58
2023/10/28 05:42:27;;;;;;;0.10;0.10;;;;;;;9.96;100.00;97456.75;5155451;27;20242;-58
2023/10/28 05:45:14;;;;;;;0.10;0.10;;;;;;;10.00;100.00;97450.22;5153802;27;20213;-58
2023/10/28 05:48:00;;;;;;;0.10;0.10;;;;;;;9.91;100.00;97461.59;5155271;27;20188;-58
2023/10/28 05:50:52;;;;;;;0.10;0.10;;;;;;;9.91;100.00;97477.47;5155208;27;20212;-58
2023/10/28 05:53:39;;;;;;;0.10;0.10;;;;;;;10.10;100.00;97460.81;5155129;27;20193;-58
2023/10/28 05:56:27;;;;;;;0.10;0.10;;;;;;;10.09;100.00;97463.59;5155193;27;20185;-58
2023/10/28 05:59:15;;;;;;;0.10;0.10;;;;;;;10.10;100.00;97467.91;5155240;27;20192;-58
2023/10/28 06:02:03;;;;;;;0.10;0.10;;;;;;;10.06;100.00;97475.28;5154146;27;20265;-58
2023/10/28 06:04:53;;;;;;;0.10;0.10;;;;;;;9.94;100.00;97479.00;5154860;27;20246;-58
2023/10/28 06:07:47;;;;;;;0.10;0.10;;;;;;;9.88;100.00;97483.03;5155052;27;20193;-58
2023/10/28 06:10:34;;;;;;;0.10;0.10;;;;;;;9.89;100.00;97489.16;5155045;27;20193;-58
2023/10/28 06:13:21;;;;;;;0.10;0.10;;;;;;;9.89;100.00;97497.94;5154938;27;20315;-58
2023/10/28 06:16:08;;;;;;;0.10;0.10;;;;;;;9.90;100.00;97496.13;5153498;27;20200;-58
2023/10/28 06:18:55;;;;;;;0.03;0.03;;;;;;;9.91;100.00;97517.13;5154872;27;20196;-58
2023/10/28 06:21:42;;;;;;;0.10;0.10;;;;;;;9.92;100.00;97526.75;5139118;27;20295;-58
2023/10/28 06:24:30;;;;;;;0.10;0.10;;;;;;;9.88;100.00;97517.41;5154540;27;20213;-58
2023/10/28 06:27:17;;;;;;;0.10;0.10;;;;;;;10.00;100.00;97524.25;5154788;27;20300;-58
2023/10/28 06:30:06;;;;;;;0.10;0.10;;;;;;;10.01;100.00;97525.94;5154318;27;20184;-58
2023/10/28 06:32:53;;;;;;;0.00;0.00;;;;;;;9.92;100.00;97531.19;5153992;27;20230;-58
2023/10/28 06:35:40;;;;;;;0.10;0.10;;;;;;;9.99;100.00;97534.97;5154701;27;20185;-58
2023/10/28 06:38:28;;;;;;;0.10;0.10;;;;;;;9.98;100.00;97531.50;5154690;27;20303;-58
2023/10/28 06:41:16;;;;;;;0.10;0.10;;;;;;;9.88;100.00;97535.09;5154036;27;20208;-58
2023/10/28 06:44:05;;;;;;;0.00;0.00;;;;;;;9.78;100.00;97548.28;5154392;27;20212;-58
2023/10/28 06:46:53;;;;;;;0.03;0.03;;;;;;;9.85;100.00;97553.88;5153110;27;20188;-58
2023/10/28 06:49:41;;;;;;;0.10;0.10;;;;;;;10.03;100.00;97554.88;5154352;27;20197;-58
2023/10/28 06:52:28;;;;;;;0.00;0.00;;;;;;;10.10;100.00;97555.19;5154409;27;20192;-58
2023/10/28 06:55:15;;;;;;;0.10;0.10;;;;;;;10.04;100.00;97557.44;5154432;27;20188;-58
2023/10/28 06:58:03;;;;;;;0.10;0.10;;;;;;;9.98;100.00;97562.41;5154215;27;20185;-58
2023/10/28 07:00:50;;;;;;;0.00;0.00;;;;;;;9.90;100.00;97565.72;5152947;27;20663;-58
2023/10/28 07:03:38;;;;;;;0.03;0.03;;;;;;;9.95;100.00;97576.75;5154433;27;20193;-58
2023/10/28 07:06:25;;;;;;;0.00;0.00;;;;;;;10.17;100.00;97565.09;5153378;27;20196;-58
2023/10/28 07:09:12;;;;;;;0.00;0.00;;;;;;;10.02;100.00;97572.56;5154208;27;20217;-58
2023/10/28 07:11:59;;;;;;;0.00;0.00;;;;;;;10.27;100.00;97583.69;5154348;27;20253;-58
2023/10/28 07:14:48;;;;;;;0.10;0.10;;;;;;;10.35;100.00;97588.31;5153932;27;20188;-58
2023/10/28 07:17:35;;;;;;;0.07;0.07;;;;;;;10.28;100.00;97594.13;5154142;27;20185;-58
2023/10/28 07:20:22;;;;;;;0.10;0.10;;;;;;;10.41;100.00;97591.22;5154107;27;20683;-58
2023/10/28 07:23:09;;;;;;;0.00;0.00;;;;;;;10.38;100.00;97590.69;5153689;27;20237;-58
2023/10/28 07:25:57;;;;;;;0.00;0.00;;;;;;;10.47;100.00;97613.69;5153756;27;20702;-58
2023/10/28 07:28:45;;;;;;;0.10;0.10;;;;;;;10.59;100.00;97600.19;5154166;27;20226;-58
2023/10/28 07:31:33;;;;;;;0.03;0.03;;;;;;;10.47;100.00;97605.75;5152638;27;20200;-58
2023/10/28 07:34:19;;;;;;;0.10;0.10;;;;;;;10.63;100.00;97600.78;5154136;27;20303;-58
2023/10/28 07:37:06;;;;;;;0.10;0.10;;;;;;;10.50;100.00;97611.59;5154193;27;20192;-58
2023/10/28 07:39:53;;;;;;;0.03;0.03;;;;;;;10.53;100.00;97610.50;5153888;27;20192;-58
2023/10/28 07:42:40;;;;;;;0.10;0.10;;;;;;;10.50;100.00;97610.75;5154183;27;20188;-58
2023/10/28 07:45:27;;;;;;;0.10;0.10;;;;;;;10.69;100.00;97610.81;5156264;27;20215;-58
2023/10/28 07:48:15;;;;;;;0.00;0.00;;;;;;;10.51;100.00;97615.06;5157685;27;20230;-58
2023/10/28 07:51:02;;;;;;;0.00;0.00;;;;;;;10.53;100.00;97615.81;5157679;27;20238;-58
2023/10/28 07:53:50;;;;;;;0.10;0.10;;;;;;;10.64;100.00;97620.97;5157808;27;20199;-58
2023/10/28 07:56:37;;;;;;;0.00;0.00;;;;;;;10.72;100.00;97625.59;5157472;27;20299;-58
2023/10/28 07:59:24;;;;;;;0.00;0.00;;;;;;;10.72;100.00;97623.78;5157556;27;20204;-58
2023/10/28 08:02:11;;;;;;;0.00;0.00;;;;;;;10.76;100.00;97626.97;5156140;27;20200;-58
2023/10/28 08:05:00;;;;;;;0.10;0.10;;;;;;;11.00;100.00;97621.28;5157055;27;20266;-58
2023/10/28 08:07:48;;;;;;;0.10;0.10;;;;;;;11.08;100.00;97634.69;5157318;27;20185;-58
2023/10/28 08:10:34;;;;;;;0.10;0.10;;;;;;;11.04;100.00;97628.81;5157249;27;20250;-58
2023/10/28 08:13:21;;;;;;;0.10;0.10;;;;;;;11.12;100.00;97630.78;5157265;27;20192;-58
2023/10/28 08:16:09;;;;;;;0.10;0.10;;;;;;;11.28;100.00;97627.56;5155888;27;20193;-58
2023/10/28 08:18:58;;;;;;;0.10;0.10;;;;;;;11.29;100.00;97630.09;5157164;27;20753;-58
2023/10/28 08:21:47;;;;;;;0.10;0.10;;;;;;;11.22;100.00;97628.13;5157065;27;20192;-59
2023/10/28 08:24:34;;;;;;;0.10;0.10;;;;;;;11.36;100.00;97615.28;5136179;27;20202;-58
2023/10/28 08:27:20;;;;;;;0.10;0.10;;;;;;;11.35;100.00;97626.88;5136307;27;20193;-58
2023/10/28 08:30:08;;;;;;;0.00;0.00;;;;;;;11.33;100.00;97620.03;5134840;27;20194;-58
2023/10/28 08:32:55;;;;;;;0.10;0.10;;;;;;;11.57;100.00;97627.53;5136263;27;20185;-58
2023/10/28 08:35:42;;;;;;;0.00;0.00;;;;;;;11.47;100.00;97638.16;5136144;27;20201;-58
2023/10/28 08:38:31;;;;;;;0.00;0.00;;;;;;;11.54;100.00;97633.13;5136288;27;20724;-58
2023/10/28 08:41:21;;;;;;;0.10;0.10;;;;;;;11.53;100.00;97637.59;5135736;27;20193;-56
2023/10/28 08:44:10;;;;;;;0.10;0.10;;;;;;;11.52;100.00;97638.56;5135869;27;20190;-56
2023/10/28 08:46:57;;;;;;;0.00;0.00;;;;;;;11.46;100.00;97639.97;5134185;27;20240;-55
2023/10/28 08:49:48;;;;;;;0.10;0.10;;;;;;;11.46;100.00;97642.63;5135494;27;20213;-58
2023/10/28 08:52:38;;;;;;;0.10;0.10;;;;;;;11.51;100.00;97636.91;5135593;27;20240;-57
2023/10/28 08:55:26;;;;;;;0.10;0.10;;;;;;;11.65;100.00;97644.41;5135364;27;20297;-58
2023/10/28 08:58:14;;;;;;;0.10;0.10;;;;;;;11.73;100.00;97643.69;5135522;27;20193;-58
2023/10/28 09:01:02;;;;;;;0.10;0.10;;;;;;;11.48;100.00;97650.44;5133116;27;20205;-57
2023/10/28 09:03:52;;;;;;;0.10;0.10;;;;;;;11.55;100.00;97640.94;5135614;27;20217;-58
2023/10/28 09:06:39;;;;;;;0.10;0.10;;;;;;;11.49;100.00;97656.59;5135282;27;20216;-57
2023/10/28 09:09:28;;;;;;;0.10;0.10;;;;;;;11.36;100.00;97652.41;5135305;27;20197;-59
2023/10/28 09:12:17;;;;;;;0.10;0.10;;;;;;;11.44;100.00;97655.19;5135314;27;20672;-59
2023/10/28 09:15:04;;;;;;;0.10;0.10;;;;;;;11.41;100.00;97662.59;5133854;27;20232;-59
2023/10/28 09:17:51;;;;;;;0.10;0.10;;;;;;;11.29;100.00;97661.03;5135096;27;20228;-59
2023/10/28 09:20:40;;;;;;;0.10;0.10;;;;;;;11.30;100.00;97673.34;5135252;27;20193;-58
2023/10/28 09:23:30;;;;;;;0.10;0.10;;;;;;;11.26;100.00;97683.38;5148357;27;20236;-59
2023/10/28 09:26:18;;;;;;;0.00;0.00;;;;;;;11.04;100.00;97681.81;5155343;27;20289;-58
2023/10/28 09:29:06;;;;;;;0.03;0.03;;;;;;;11.04;100.00;97686.28;5155668;27;20196;-58
2023/10/28 09:31:53;;;;;;;0.00;0.00;;;;;;;11.29;100.00;97692.84;5154320;27;20193;-58
2023/10/28 09:34:41;;;;;;;0.10;0.10;;;;;;;11.17;100.00;97692.13;5155536;27;20196;-58
2023/10/28 09:37:29;;;;;;;0.10;0.10;;;;;;;11.15;100.00;97694.94;5155616;27;20239;-59
2023/10/28 09:40:17;;;;;;;0.10;0.10;;;;;;;11.25;100.00;97702.88;5155348;27;20189;-58
2023/10/28 09:43:04;;;;;;;0.00;0.00;;;;;;;11.26;100.00;97704.56;5155534;27;20777;-58
2023/10/28 09:45:52;;;;;;;0.00;0.00;;;;;;;11.28;100.00;97712.38;5154014;27;20319;-58
2023/10/28 09:48:41;;;;;;;0.00;0.00;;;;;;;11.22;100.00;97703.19;5155464;27;20197;-58
2023/10/28 09:51:31;;;;;;;0.10;0.10;;;;;;;11.19;100.00;97711.38;5155279;27;20192;-58
2023/10/28 09:54:23;;;;;;;0.00;0.00;;;;;;;11.20;100.00;97709.59;5155347;27;20258;-58
2023/10/28 09:57:11;;;;;;;0.10;0.10;;;;;;;11.21;100.00;97717.41;5155302;27;20258;-58
2023/10/28 09:59:59;;;;;;;0.00;0.00;;;;;;;11.17;100.00;97711.53;5154760;27;20197;-58
2023/10/28 10:03:03;;;;;;;0.00;0.00;;;;;;;11.23;100.00;97711.97;5155177;27;20192;-58
2023/10/28 10:05:53;;;;;;;0.10;0.10;;;;;;;11.31;100.00;97706.81;5153941;27;20216;-59
2023/10/28 10:08:49;;;;;;;0.00;0.00;;;;;;;11.30;100.00;97715.75;5154759;27;20258;-58
2023/10/28 10:11:42;;;;;;;0.00;0.00;;;;;;;11.21;100.00;97716.56;5139308;27;20230;-59
2023/10/28 10:14:32;;;;;;;0.00;0.00;;;;;;;11.26;100.00;97715.16;5155021;27;20265;-59
2023/10/28 10:17:27;;;;;;;0.00;0.00;;;;;;;11.32;100.00;97714.63;5153561;27;20189;-58
2023/10/28 10:20:25;;;;;;;0.10;0.10;;;;;;;11.44;100.00;97723.28;5154812;27;20245;-59
2023/10/28 10:23:12;;;;;;;0.00;0.00;;;;;;;11.50;100.00;97713.94;5154392;27;20224;-59
2023/10/28 10:26:00;;;;;;;0.00;0.00;;;;;;;11.50;100.00;97716.59;5154421;27;20220;-59
2023/10/28 10:28:47;;;;;;;0.00;0.00;;;;;;;11.53;100.00;97718.94;5154644;27;20230;-59
2023/10/28 10:31:36;;;;;;;0.00;0.00;;;;;;;11.64;100.00;97709.03;5153372;27;20196;-58
2023/10/28 10:34:35;;;;;;;0.00;0.00;;;;;;;11.62;100.00;97707.50;5154832;27;20254;-59
2023/10/28 10:37:24;;;;;;;0.10;0.10;;;;;;;11.74;100.00;97712.50;5154584;27;20197;-59
2023/10/28 10:40:13;;;;;;;0.10;0.10;;;;;;;11.93;100.00;97719.66;5154625;27;20193;-59
2023/10/28 10:43:08;;;;;;;0.10;0.10;;;;;;;12.09;100.00;97718.22;5154622;27;20193;-58
2023/10/28 10:45:55;;;;;;;0.10;0.10;;;;;;;12.27;100.00;97704.06;5153144;27;20377;-58
2023/10/28 10:48:42;;;;;;;0.07;0.07;;;;;;;12.32;100.00;97693.84;5154649;27;20204;-58
2023/10/28 10:51:33;;;;;;;0.10;0.10;;;;;;;12.55;100.00;97702.31;5154367;27;20303;-58
2023/10/28 10:54:21;;;;;;;0.00;0.00;;;;;;;12.85;100.00;97700.34;5154493;27;20307;-58
2023/10/28 10:57:09;;;;;;;0.10;0.10;;;;;;;12.76;100.00;97693.25;5154326;27;20250;-58
2023/10/28 10:59:58;;;;;;;0.00;0.00;;;;;;;12.63;100.00;97669.66;5137935;27;20322;-58
2023/10/28 11:02:45;;;;;;;0.00;0.00;;;;;;;12.64;100.00;97676.66;5138865;27;20199;-58
2023/10/28 11:05:33;;;;;;;0.00;0.00;;;;;;;12.72;100.00;97675.91;5154305;27;20192;-58
2023/10/28 11:08:20;;;;;;;0.10;0.10;;;;;;;12.69;100.00;97658.47;5153927;27;20203;-58
2023/10/28 11:11:08;;;;;;;0.00;0.00;;;;;;;12.58;100.00;97656.84;5154385;27;20204;-58
2023/10/28 11:13:55;;;;;;;0.00;0.00;;;;;;;12.64;100.00;97649.25;5154219;27;20193;-58
2023/10/28 11:16:43;;;;;;;0.10;0.10;;;;;;;12.52;100.00;97652.09;5152749;27;20186;-58
2023/10/28 11:19:30;;;;;;;0.10;0.10;;;;;;;12.82;100.00;97650.13;5158237;27;20291;-58
2023/10/28 11:22:18;;;;;;;0.10;0.10;;;;;;;12.94;100.00;97632.19;5157929;27;20228;-58
2023/10/28 11:25:05;;;;;;;0.10;0.10;;;;;;;12.96;100.00;97639.00;5158010;27;20213;-58
2023/10/28 11:27:53;;;;;;;0.10;0.10;;;;;;;13.84;100.00;97639.13;5157910;27;20251;-58
2023/10/28 11:30:40;;;;;;;0.00;0.00;;;;;;;13.48;100.00;97636.50;5156714;27;20192;-58
2023/10/28 11:33:27;;;;;;;0.03;0.03;;;;;;;13.43;100.00;97620.19;5157745;27;20204;-58
2023/10/28 11:36:16;;;;;;;0.00;0.00;;;;;;;13.42;100.00;97621.19;5158165;27;20200;-58
2023/10/28 11:39:12;;;;;;;0.10;0.10;;;;;;;13.42;100.00;97614.03;5158014;27;20196;-58
2023/10/28 11:42:09;;;;;;;0.00;0.00;;;;;;;13.67;100.00;97600.91;5157818;27;20192;-58
2023/10/28 11:44:57;;;;;;;0.10;0.10;;;;;;;14.19;100.00;97593.75;5156802;27;20188;-58
2023/10/28 11:47:44;;;;;;;0.10;0.10;;;;;;;14.48;100.00;97588.06;5157951;27;20274;-58
2023/10/28 11:50:31;;;;;;;0.10;0.10;;;;;;;14.70;100.00;97573.28;5157622;27;20196;-58
2023/10/28 11:53:23;;;;;;;0.00;0.00;;;;;;;14.82;100.00;97573.81;5157737;27;20189;-58
2023/10/28 11:56:10;;;;;;;0.10;0.10;;;;;;;15.42;100.00;97552.16;5157471;27;20193;-58
2023/10/28 11:58:57;;;;;;;0.00;0.00;;;;;;;15.03;100.00;97555.50;5157520;27;20180;-58
2023/10/28 12:01:45;;;;;;;0.00;0.00;;;;;;;14.96;100.00;97567.84;5156220;27;20193;-58
2023/10/28 12:04:32;;;;;;;0.03;0.03;;;;;;;14.45;100.00;97555.56;5157384;27;20192;-58
2023/10/28 12:07:19;;;;;;;0.10;0.10;;;;;;;14.79;100.00;97552.81;5157140;27;20212;-59
2023/10/28 12:10:07;;;;;;;0.10;0.10;;;;;;;14.67;100.00;97559.44;5157465;27;20193;-59
2023/10/28 12:12:53;;;;;;;0.00;0.00;;;;;;;14.44;100.00;97565.34;5157152;27;20192;-59
2023/10/28 12:15:41;;;;;;;0.00;0.00;;;;;;;14.22;100.00;97563.28;5155857;27;20196;-58
2023/10/28 12:18:30;;;;;;;0.00;0.00;;;;;;;13.81;100.00;97557.78;5157086;27;20185;-58
2023/10/28 12:21:17;;;;;;;0.00;0.00;;;;;;;13.67;100.00;97563.66;5156937;27;20201;-58
2023/10/28 12:24:05;;;;;;;0.10;0.10;;;;;;;13.74;100.00;97573.53;5156708;27;20217;-58
2023/10/28 12:26:53;;;;;;;0.10;0.10;;;;;;;13.57;100.00;97569.09;5156957;27;20205;-58
2023/10/28 12:29:40;;;;;;;0.00;0.00;;;;;;;13.57;100.00;97569.09;5156044;27;20243;-58
2023/10/28 12:32:26;;;;;;;0.10;0.10;;;;;;;13.66;100.00;97578.78;5156789;27;20555;-58
2023/10/28 12:35:15;;;;;;;0.00;0.00;;;;;;;13.74;100.00;97565.53;5141204;27;20189;-58
2023/10/28 12:38:02;;;;;;;0.10;0.10;;;;;;;13.95;100.00;97573.13;5156647;27;20196;-58
2023/10/28 12:40:49;;;;;;;0.03;0.03;;;;;;;13.80;100.00;97564.09;5156716;27;20180;-58
2023/10/28 12:43:36;;;;;;;0.00;0.00;;;;;;;13.97;100.00;97565.00;5156773;27;20247;-57
2023/10/28 12:46:23;;;;;;;0.10;0.10;;;;;;;14.03;100.00;97561.69;5155051;27;20184;-57
2023/10/28 12:49:10;;;;;;;0.10;0.10;;;;;;;14.08;100.00;97551.41;5156712;27;20188;-57
2023/10/28 12:52:00;;;;;;;0.10;0.10;;;;;;;13.91;100.00;97553.16;5156537;27;20200;-58
2023/10/28 12:54:47;;;;;;;0.03;0.03;;;;;;;13.53;100.00;97557.09;5156145;27;20282;-58
2023/10/28 12:57:34;;;;;;;0.10;0.10;;;;;;;13.42;100.00;97563.50;5156338;27;20192;-58
2023/10/28 13:00:21;;;;;;;0.10;0.10;;;;;;;13.36;100.00;97561.47;5154930;27;20184;-58
2023/10/28 13:03:08;;;;;;;0.10;0.10;;;;;;;13.38;100.00;97567.44;5156075;27;20246;-58